Time;durP1;ratioP1;P1;durP2;ratioP2;P2;SDS_P1;SDS_P2;PMS_P1;PMS_P2;Temp;Humidity;BMP_temperature;BMP_pressure;BME280_temperature;BME280_humidity;BME280_pressure;Samples;Min_cycle;Max_cycle;Signal;HPM_P1;HPM_P2
2023/01/03 00:01:36;;;;;;;1.88;0.80;;;8.60;1.00;;;;;;5073695;28;20033;-76
2023/01/03 00:04:03;;;;;;;2.53;0.90;;;8.50;1.00;;;;;;5074659;28;20029;-76
2023/01/03 00:06:36;;;;;;;2.05;0.85;;;8.40;1.00;;;;;;5063518;28;20062;-77
2023/01/03 00:09:04;;;;;;;3.80;1.13;;;8.20;1.00;;;;;;5083550;28;20075;-78
2023/01/03 00:14:22;;;;;;;2.58;1.20;;;8.10;1.00;;;;;;5082712;28;20032;-77
2023/01/03 00:16:54;;;;;;;3.13;1.48;;;8.00;1.00;;;;;;5079713;28;20049;-76
2023/01/03 00:19:21;;;;;;;1.98;1.00;;;8.00;1.00;;;;;;5059339;28;20033;-78
2023/01/03 00:21:47;;;;;;;2.75;1.48;;;7.90;1.00;;;;;;5061751;28;20033;-76
2023/01/03 00:24:14;;;;;;;1.95;1.38;;;7.80;1.00;;;;;;5057265;28;20504;-77
2023/01/03 00:26:41;;;;;;;2.33;1.35;;;7.70;1.00;;;;;;5054774;28;20037;-76
2023/01/03 00:29:08;;;;;;;4.07;1.65;;;7.70;1.00;;;;;;5055778;28;20040;-77
2023/01/03 00:31:35;;;;;;;2.85;1.38;;;7.70;1.00;;;;;;5073401;28;20458;-77
2023/01/03 00:34:01;;;;;;;2.25;1.50;;;7.60;1.00;;;;;;5055959;28;20040;-77
2023/01/03 00:36:28;;;;;;;2.25;1.40;;;7.50;1.00;;;;;;5053569;28;20044;-77
2023/01/03 00:38:54;;;;;;;2.58;1.30;;;7.40;1.00;;;;;;5056002;28;20441;-77
2023/01/03 00:41:20;;;;;;;4.18;1.50;;;7.40;1.00;;;;;;5073277;28;20033;-79
2023/01/03 00:43:47;;;;;;;2.55;1.55;;;7.30;1.00;;;;;;5073258;28;20031;-77
2023/01/03 00:46:16;;;;;;;5.75;2.10;;;7.20;1.00;;;;;;5076155;28;20024;-77
2023/01/03 00:48:42;;;;;;;2.58;1.65;;;7.10;1.00;;;;;;5074902;28;20032;-78
2023/01/03 00:51:10;;;;;;;3.28;2.22;;;7.00;1.00;;;;;;5073063;28;20033;-78
2023/01/03 00:53:39;;;;;;;4.45;1.58;;;6.90;1.00;;;;;;5054553;28;20036;-78
2023/01/03 00:56:08;;;;;;;3.13;1.65;;;6.90;1.00;;;;;;5053278;28;20043;-77
2023/01/03 00:58:35;;;;;;;2.70;1.65;;;6.90;1.70;;;;;;5053885;28;20052;-77
2023/01/03 01:01:13;;;;;;;2.78;1.50;;;6.80;4.80;;;;;;5054704;28;20051;-77
2023/01/03 01:03:42;;;;;;;4.47;2.00;;;6.80;7.70;;;;;;5071895;28;20040;-77
2023/01/03 01:06:17;;;;;;;2.13;1.50;;;6.80;9.70;;;;;;5053115;28;20052;-77
2023/01/03 01:08:45;;;;;;;2.83;1.58;;;6.70;13.20;;;;;;5071499;28;20055;-76
2023/01/03 01:11:12;;;;;;;3.05;1.58;;;6.70;17.40;;;;;;5072087;28;20032;-76
2023/01/03 01:13:40;;;;;;;3.80;1.80;;;6.70;17.40;;;;;;5071601;28;20245;-77
2023/01/03 01:16:09;;;;;;;2.58;1.52;;;6.60;17.50;;;;;;5052898;28;20041;-76
2023/01/03 01:18:36;;;;;;;4.10;1.65;;;6.60;17.20;;;;;;5071313;28;20047;-76
2023/01/03 01:21:07;;;;;;;4.03;1.65;;;6.60;21.60;;;;;;5054076;28;20162;-76
2023/01/03 01:23:35;;;;;;;2.58;1.77;;;6.50;25.40;;;;;;5071409;28;20032;-76
2023/01/03 01:26:02;;;;;;;6.00;2.03;;;6.60;26.80;;;;;;5052689;28;20032;-76
2023/01/03 01:28:30;;;;;;;2.10;1.63;;;6.50;27.20;;;;;;5071209;28;20493;-76
2023/01/03 01:31:04;;;;;;;2.85;1.42;;;6.40;28.20;;;;;;5055353;28;20036;-75
2023/01/03 01:33:32;;;;;;;3.13;1.98;;;6.40;27.50;;;;;;5078019;28;20032;-75
2023/01/03 01:36:04;;;;;;;4.25;1.98;;;6.30;28.70;;;;;;5059179;28;20037;-75
2023/01/03 01:38:30;;;;;;;5.75;2.72;;;6.30;30.50;;;;;;5059783;28;20048;-75
2023/01/03 01:40:57;;;;;;;3.35;2.00;;;6.20;34.20;;;;;;5077681;28;20060;-75
2023/01/03 01:46:31;;;;;;;3.35;1.70;;;6.00;37.00;;;;;;5076986;28;20095;-76
2023/01/03 01:49:02;;;;;;;7.05;2.47;;;5.90;45.70;;;;;;5073451;28;20033;-76
2023/01/03 01:51:34;;;;;;;4.75;2.20;;;5.90;55.00;;;;;;5077144;28;20035;-76
2023/01/03 01:54:03;;;;;;;2.50;1.98;;;5.80;61.80;;;;;;5079625;28;20040;-76
2023/01/03 01:56:35;;;;;;;2.92;2.20;;;5.80;70.50;;;;;;5076489;28;20032;-76
2023/01/03 01:59:02;;;;;;;6.20;2.05;;;5.70;74.60;;;;;;5078106;28;20044;-76
2023/01/03 02:01:29;;;;;;;4.97;2.80;;;5.70;78.10;;;;;;5059262;28;20044;-77
2023/01/03 02:04:02;;;;;;;5.05;2.50;;;5.70;88.30;;;;;;5060278;28;20044;-77
2023/01/03 02:06:31;;;;;;;4.00;2.33;;;5.80;92.20;;;;;;5076853;28;20036;-77
2023/01/03 02:08:57;;;;;;;4.30;2.50;;;5.70;92.10;;;;;;5077736;28;20049;-77
2023/01/03 02:15:02;;;;;;;3.38;2.40;;;5.60;92.50;;;;;;5078096;28;20035;-76
2023/01/03 02:17:55;;;;;;;4.40;2.53;;;5.60;99.90;;;;;;5077454;28;20045;-76
2023/01/03 02:20:40;;;;;;;5.05;2.72;;;5.50;99.20;;;;;;5078938;28;20032;-78
2023/01/03 02:23:27;;;;;;;5.60;2.67;;;5.40;98.70;;;;;;5043647;28;20048;-77
2023/01/03 02:25:56;;;;;;;4.32;2.90;;;5.30;99.00;;;;;;5060816;28;20036;-75
2023/01/03 02:28:50;;;;;;;3.50;2.63;;;5.30;99.90;;;;;;5061844;28;20407;-78
2023/01/03 02:31:40;;;;;;;4.68;3.03;;;5.20;99.90;;;;;;5060990;28;20044;-76
2023/01/03 02:34:34;;;;;;;4.22;3.00;;;5.20;99.90;;;;;;5077604;28;20033;-76
2023/01/03 02:37:30;;;;;;;5.28;2.83;;;5.10;99.90;;;;;;5077555;28;20032;-76
2023/01/03 02:40:22;;;;;;;4.90;2.92;;;5.00;99.90;;;;;;5077452;28;20362;-76
2023/01/03 02:42:56;;;;;;;6.10;3.70;;;5.00;99.90;;;;;;5056254;28;20041;-76
2023/01/03 02:45:31;;;;;;;8.55;4.72;;;4.90;99.90;;;;;;5054846;28;20032;-77
2023/01/03 02:48:15;;;;;;;15.30;5.82;;;4.90;99.90;;;;;;5074420;28;20047;-76
2023/01/03 02:50:48;;;;;;;8.65;5.03;;;4.90;99.90;;;;;;5073654;28;20763;-75
2023/01/03 02:53:22;;;;;;;12.40;5.18;;;4.80;99.90;;;;;;5074641;28;20024;-76
2023/01/03 02:55:51;;;;;;;7.65;4.50;;;4.80;99.90;;;;;;5084955;28;20037;-76
2023/01/03 02:58:23;;;;;;;9.98;5.03;;;4.80;99.90;;;;;;5073789;28;20066;-76
2023/01/03 03:00:58;;;;;;;5.28;3.47;;;4.70;99.90;;;;;;5073542;28;20041;-76
2023/01/03 03:03:30;;;;;;;6.90;3.95;;;4.60;99.90;;;;;;5073599;28;20036;-78
2023/01/03 03:06:10;;;;;;;8.27;4.20;;;4.60;99.90;;;;;;5072279;28;20036;-76
2023/01/03 03:08:36;;;;;;;4.82;3.50;;;4.50;99.90;;;;;;5073266;28;20037;-76
2023/01/03 03:14:14;;;;;;;5.93;3.97;;;4.40;99.90;;;;;;5073248;28;20035;-76
2023/01/03 03:16:48;;;;;;;6.03;3.75;;;4.40;99.90;;;;;;5071228;28;20051;-76
2023/01/03 03:25:34;;;;;;;7.10;4.55;;;4.50;99.90;;;;;;5072091;28;20036;-77
2023/01/03 03:30:58;;;;;;;8.52;5.00;;;4.60;99.90;;;;;;5073935;28;20037;-77
2023/01/03 03:33:27;;;;;;;8.98;5.30;;;4.60;99.90;;;;;;5073440;28;20032;-77
2023/01/03 03:35:55;;;;;;;13.30;6.70;;;4.60;99.90;;;;;;5071930;28;20061;-77
2023/01/03 03:38:33;;;;;;;36.92;21.58;;;4.50;99.90;;;;;;5055213;28;20059;-76
2023/01/03 03:47:25;;;;;;;17.67;10.43;;;4.40;99.90;;;;;;5072845;28;20028;-76
2023/01/03 03:49:54;;;;;;;14.65;8.80;;;4.30;99.90;;;;;;5054851;28;20492;-76
2023/01/03 03:52:26;;;;;;;34.90;19.40;;;4.30;99.90;;;;;;5039259;28;20474;-76
2023/01/03 03:55:19;;;;;;;21.30;11.48;;;4.20;99.90;;;;;;5056873;28;20047;-77
2023/01/03 03:57:56;;;;;;;69.95;35.58;;;4.20;99.90;;;;;;5073988;28;20057;-78
2023/01/03 04:00:28;;;;;;;21.75;9.98;;;4.10;99.90;;;;;;5075013;28;20047;-76
2023/01/03 04:02:57;;;;;;;11.93;7.00;;;4.10;99.90;;;;;;5075779;28;20040;-76
2023/01/03 04:05:26;;;;;;;10.23;5.82;;;4.10;99.90;;;;;;5074803;28;20039;-77
2023/01/03 04:07:53;;;;;;;10.05;5.57;;;4.20;99.90;;;;;;5057103;28;20055;-77
2023/01/03 04:10:22;;;;;;;9.90;5.85;;;4.30;99.90;;;;;;5075631;28;20033;-77
2023/01/03 04:12:51;;;;;;;8.60;5.47;;;4.30;99.90;;;;;;5039404;28;20044;-77
2023/01/03 04:15:18;;;;;;;8.48;5.15;;;4.30;99.90;;;;;;5073861;28;20485;-77
2023/01/03 04:17:44;;;;;;;9.32;5.75;;;4.20;99.90;;;;;;5085569;28;20039;-77
2023/01/03 04:20:11;;;;;;;8.98;6.13;;;4.20;99.90;;;;;;5093069;28;20032;-76
2023/01/03 04:22:38;;;;;;;9.05;5.65;;;4.10;99.90;;;;;;5093935;28;20032;-77
2023/01/03 04:25:05;;;;;;;20.02;11.90;;;4.00;99.90;;;;;;5093406;28;20044;-77
2023/01/03 04:27:31;;;;;;;22.00;14.32;;;3.90;99.90;;;;;;5093622;28;20032;-78
2023/01/03 04:29:57;;;;;;;13.25;7.72;;;3.90;99.90;;;;;;5094051;28;20024;-77
2023/01/03 04:32:24;;;;;;;10.90;5.75;;;3.80;99.90;;;;;;5095950;28;20366;-77
2023/01/03 04:34:50;;;;;;;7.80;4.53;;;3.80;99.90;;;;;;5095540;28;20578;-77
2023/01/03 04:37:16;;;;;;;9.77;4.50;;;3.80;99.90;;;;;;5093770;28;20377;-77
2023/01/03 04:39:42;;;;;;;8.77;4.50;;;3.70;99.90;;;;;;5092099;28;20051;-76
2023/01/03 04:44:53;;;;;;;9.63;5.25;;;3.70;99.90;;;;;;5083994;28;20055;-78
2023/01/03 04:47:19;;;;;;;8.52;4.80;;;3.70;99.90;;;;;;5092117;28;20461;-76
2023/01/03 04:49:46;;;;;;;9.38;5.25;;;3.70;99.90;;;;;;5073942;28;20040;-76
2023/01/03 04:52:14;;;;;;;9.27;5.22;;;3.60;99.90;;;;;;5091262;28;20055;-76
2023/01/03 04:54:40;;;;;;;7.57;5.03;;;3.50;99.90;;;;;;5090017;28;20036;-76
2023/01/03 04:57:07;;;;;;;8.10;5.18;;;3.60;99.90;;;;;;5090731;28;20036;-76
2023/01/03 04:59:33;;;;;;;9.73;6.00;;;3.60;99.90;;;;;;5090310;28;20382;-79
2023/01/03 05:02:00;;;;;;;9.45;6.45;;;3.50;99.90;;;;;;5091105;28;20118;-76
2023/01/03 05:04:28;;;;;;;10.57;7.07;;;3.50;99.90;;;;;;5090903;28;20036;-76
2023/01/03 05:06:54;;;;;;;10.25;7.40;;;3.40;99.90;;;;;;5089370;28;20376;-76
2023/01/03 05:09:21;;;;;;;9.10;6.60;;;3.30;99.90;;;;;;5090879;28;20040;-76
2023/01/03 05:11:48;;;;;;;9.88;5.75;;;3.30;99.90;;;;;;5091338;28;20032;-76
2023/01/03 05:14:14;;;;;;;11.30;6.63;;;3.30;99.90;;;;;;5091855;28;20351;-77
2023/01/03 05:16:40;;;;;;;8.20;5.88;;;3.30;99.90;;;;;;5088280;28;20056;-76
2023/01/03 05:19:06;;;;;;;9.88;5.88;;;3.20;99.90;;;;;;5090522;28;20051;-76
2023/01/03 05:25:48;;;;;;;10.90;6.40;;;3.30;99.90;;;;;;5090481;28;20044;-76
2023/01/03 05:27:21;;;;;;;9.07;5.63;;;3.30;99.90;;;;;;5087408;28;20106;-76
2023/01/03 05:29:52;;;;;;;10.75;5.63;;;3.30;99.90;;;;;;5090897;28;20039;-76
2023/01/03 05:32:18;;;;;;;9.45;5.82;;;3.30;99.90;;;;;;5092125;28;20147;-76
2023/01/03 05:34:44;;;;;;;10.25;6.20;;;3.20;99.90;;;;;;5090767;28;20035;-77
2023/01/03 05:37:10;;;;;;;9.40;5.82;;;3.20;99.90;;;;;;5090543;28;20040;-76
2023/01/03 05:39:36;;;;;;;10.05;6.05;;;3.20;99.90;;;;;;5089058;28;20040;-78
2023/01/03 05:42:03;;;;;;;8.70;6.07;;;3.10;99.90;;;;;;5091690;28;20393;-77
2023/01/03 05:44:31;;;;;;;10.25;6.32;;;3.10;99.90;;;;;;5090282;28;20067;-77
2023/01/03 05:46:59;;;;;;;10.05;6.68;;;3.20;99.90;;;;;;5088517;28;20054;-77
2023/01/03 05:49:25;;;;;;;8.77;6.32;;;3.20;99.90;;;;;;5091506;28;20434;-77
2023/01/03 05:51:51;;;;;;;11.57;6.63;;;3.10;99.90;;;;;;5089234;28;20040;-77
2023/01/03 05:54:19;;;;;;;9.93;5.97;;;3.10;99.90;;;;;;5091671;28;20043;-76
2023/01/03 05:56:45;;;;;;;10.60;5.45;;;3.00;99.90;;;;;;5083079;28;20035;-77
2023/01/03 05:59:12;;;;;;;11.02;5.75;;;2.80;99.90;;;;;;5089773;28;20052;-77
2023/01/03 06:01:38;;;;;;;11.60;5.60;;;2.80;99.90;;;;;;5090730;28;20026;-77
2023/01/03 06:04:05;;;;;;;11.35;5.78;;;2.80;99.90;;;;;;5091616;28;20036;-77
2023/01/03 06:06:31;;;;;;;10.15;5.20;;;2.60;99.90;;;;;;5089832;28;20024;-76
2023/01/03 06:08:58;;;;;;;10.68;5.35;;;2.60;99.90;;;;;;5086078;28;20056;-76
2023/01/03 06:11:25;;;;;;;9.43;5.28;;;2.50;99.90;;;;;;5091467;28;20024;-76
2023/01/03 06:13:52;;;;;;;10.18;6.05;;;2.50;99.90;;;;;;5089497;28;20039;-76
2023/01/03 06:19:05;;;;;;;10.15;4.88;;;2.50;99.90;;;;;;5093806;28;20047;-76
2023/01/03 06:21:33;;;;;;;9.15;4.95;;;2.40;99.90;;;;;;5088886;28;20138;-76
2023/01/03 06:23:59;;;;;;;9.40;5.25;;;2.40;99.90;;;;;;5094413;28;20032;-76
2023/01/03 06:26:26;;;;;;;9.60;5.35;;;2.40;99.90;;;;;;5093773;28;20040;-77
2023/01/03 06:28:52;;;;;;;9.00;5.22;;;2.30;99.90;;;;;;5093924;28;20039;-76
2023/01/03 06:31:18;;;;;;;10.13;4.88;;;2.30;99.90;;;;;;5094724;28;20028;-76
2023/01/03 06:33:46;;;;;;;9.88;5.10;;;2.30;99.90;;;;;;5093847;28;20036;-76
2023/01/03 06:36:15;;;;;;;8.63;4.70;;;2.30;99.90;;;;;;5093142;28;20032;-76
2023/01/03 06:38:41;;;;;;;8.65;5.43;;;2.30;99.90;;;;;;5092314;28;20388;-76
2023/01/03 06:41:08;;;;;;;9.23;5.22;;;2.30;99.90;;;;;;5094356;28;20036;-76
2023/01/03 06:43:34;;;;;;;15.85;6.38;;;2.30;99.90;;;;;;5093343;28;20020;-78
2023/01/03 06:54:20;;;;;;;21.23;12.27;;;2.20;99.90;;;;;;5093293;28;20036;-76
2023/01/03 06:56:47;;;;;;;16.70;8.15;;;2.20;99.90;;;;;;5092615;28;20369;-76
2023/01/03 06:59:14;;;;;;;15.73;8.63;;;2.20;99.90;;;;;;5094727;28;20381;-76
2023/01/03 07:01:40;;;;;;;13.40;7.88;;;2.10;99.90;;;;;;5090426;28;20036;-76
2023/01/03 07:04:06;;;;;;;12.07;7.07;;;2.10;99.90;;;;;;5094512;28;20031;-76
2023/01/03 07:06:32;;;;;;;13.07;7.43;;;1.90;99.90;;;;;;5093197;28;20043;-76
2023/01/03 07:08:58;;;;;;;12.50;5.90;;;1.90;99.90;;;;;;5093923;28;20036;-76
2023/01/03 07:11:25;;;;;;;19.00;12.63;;;2.00;99.90;;;;;;5093223;28;20035;-76
2023/01/03 07:13:57;;;;;;;21.13;13.27;;;2.10;99.90;;;;;;5093734;28;20483;-76
2023/01/03 07:16:34;;;;;;;18.08;11.60;;;2.00;99.90;;;;;;5087814;28;20485;-76
2023/01/03 07:19:01;;;;;;;16.88;10.95;;;2.00;99.90;;;;;;5073776;28;20519;-76
2023/01/03 07:21:29;;;;;;;16.42;11.75;;;2.10;99.90;;;;;;5056157;28;20501;-76
2023/01/03 07:23:57;;;;;;;14.38;9.32;;;2.10;99.90;;;;;;5073600;28;20043;-76
2023/01/03 07:26:24;;;;;;;14.07;9.85;;;2.10;99.90;;;;;;5056362;28;20378;-76
2023/01/03 07:28:51;;;;;;;15.55;8.05;;;2.10;99.90;;;;;;5072991;28;20040;-77
2023/01/03 07:31:17;;;;;;;13.27;8.68;;;2.10;99.90;;;;;;5055679;28;20040;-77
2023/01/03 07:33:45;;;;;;;15.38;8.48;;;2.20;99.90;;;;;;5076614;28;20036;-77
2023/01/03 07:36:13;;;;;;;15.50;8.43;;;2.20;99.90;;;;;;5058896;28;20039;-78
2023/01/03 07:38:42;;;;;;;14.25;8.43;;;2.20;99.90;;;;;;5042878;28;20497;-79
2023/01/03 07:41:09;;;;;;;13.75;9.25;;;2.20;99.90;;;;;;5059538;28;20052;-78
2023/01/03 07:43:41;;;;;;;16.23;9.27;;;2.30;99.90;;;;;;5077238;28;20032;-78
2023/01/03 07:46:12;;;;;;;15.23;8.60;;;2.30;99.90;;;;;;5058648;28;20055;-78
2023/01/03 07:48:39;;;;;;;15.23;8.80;;;2.40;99.90;;;;;;5058958;28;20028;-81
2023/01/03 07:51:07;;;;;;;12.85;7.30;;;2.40;99.90;;;;;;5058062;28;20039;-79
2023/01/03 07:53:35;;;;;;;15.38;9.10;;;2.30;99.90;;;;;;5037509;28;20036;-79
2023/01/03 07:56:13;;;;;;;15.07;9.88;;;2.40;99.90;;;;;;5073771;28;20017;-79
2023/01/03 07:58:41;;;;;;;11.82;8.30;;;2.40;99.90;;;;;;5049186;28;20047;-79
2023/01/03 08:01:09;;;;;;;16.65;9.25;;;2.40;99.90;;;;;;5051368;28;20040;-79
2023/01/03 08:03:36;;;;;;;19.70;10.70;;;2.40;99.90;;;;;;5051189;28;20028;-81
2023/01/03 08:06:06;;;;;;;19.92;10.55;;;2.40;99.90;;;;;;5074254;28;20033;-79
2023/01/03 08:08:32;;;;;;;20.70;11.38;;;2.40;99.90;;;;;;5039105;28;20049;-80
2023/01/03 08:13:44;;;;;;;25.25;13.65;;;2.40;99.90;;;;;;5054491;28;20043;-80
2023/01/03 08:16:13;;;;;;;22.52;13.27;;;2.40;99.90;;;;;;5072090;28;20063;-78
2023/01/03 08:18:40;;;;;;;25.30;15.10;;;2.40;99.90;;;;;;5055322;28;20044;-81
2023/01/03 08:21:08;;;;;;;28.58;18.15;;;2.40;99.90;;;;;;5055838;28;20040;-78
2023/01/03 08:23:35;;;;;;;30.00;18.10;;;2.40;99.90;;;;;;5073659;28;20462;-79
2023/01/03 08:26:02;;;;;;;33.53;20.33;;;2.40;99.90;;;;;;5054257;28;20036;-79
2023/01/03 08:28:29;;;;;;;35.35;21.58;;;2.40;99.90;;;;;;5073500;28;20036;-78
2023/01/03 08:30:56;;;;;;;44.95;23.63;;;2.40;99.90;;;;;;5038054;28;20409;-79
2023/01/03 08:33:23;;;;;;;45.17;21.45;;;2.40;99.90;;;;;;5054365;28;20040;-79
2023/01/03 08:36:02;;;;;;;44.33;22.83;;;2.50;99.90;;;;;;5052795;28;20393;-78
2023/01/03 08:38:34;;;;;;;39.15;20.85;;;2.50;99.90;;;;;;5055427;28;20040;-79
2023/01/03 08:41:02;;;;;;;42.70;21.55;;;2.50;99.90;;;;;;5071864;28;20049;-79
2023/01/03 08:43:32;;;;;;;37.20;19.65;;;2.50;99.90;;;;;;5055273;28;20032;-79
2023/01/03 08:45:59;;;;;;;38.05;19.58;;;2.60;99.90;;;;;;5066603;28;20677;-79
2023/01/03 08:48:25;;;;;;;34.45;20.90;;;2.60;99.90;;;;;;5050073;28;20036;-79
2023/01/03 08:50:51;;;;;;;37.72;21.00;;;2.70;99.90;;;;;;5046895;28;20029;-78
2023/01/03 08:53:17;;;;;;;36.60;20.20;;;2.60;99.90;;;;;;5062933;28;20021;-78
2023/01/03 08:55:44;;;;;;;41.58;22.45;;;2.80;99.90;;;;;;5048844;28;20024;-78
2023/01/03 08:58:10;;;;;;;38.33;20.52;;;2.90;99.90;;;;;;5057860;28;20040;-78
2023/01/03 09:00:36;;;;;;;30.08;16.73;;;3.00;99.90;;;;;;5055551;28;20047;-78
2023/01/03 09:03:03;;;;;;;23.35;16.45;;;3.10;99.90;;;;;;5034621;28;20037;-78
2023/01/03 09:05:29;;;;;;;22.85;14.15;;;3.30;99.90;;;;;;5066240;28;20441;-76
2023/01/03 09:07:56;;;;;;;23.48;15.25;;;3.40;99.90;;;;;;5070027;28;20032;-79
2023/01/03 09:10:23;;;;;;;27.17;15.05;;;3.50;99.90;;;;;;5067552;28;20045;-78
2023/01/03 09:12:49;;;;;;;25.60;15.98;;;3.80;99.90;;;;;;5036424;28;20048;-86
2023/01/03 09:15:15;;;;;;;30.70;17.05;;;4.10;99.90;;;;;;5065551;28;20035;-87
2023/01/03 09:17:44;;;;;;;30.00;16.50;;;4.60;99.90;;;;;;5084973;28;20043;-86
2023/01/03 09:20:11;;;;;;;27.88;15.10;;;4.90;99.90;;;;;;5075311;28;20054;-75
2023/01/03 09:22:37;;;;;;;22.88;12.45;;;5.20;99.90;;;;;;5092509;28;20032;-76
2023/01/03 09:25:04;;;;;;;20.77;13.25;;;5.50;99.90;;;;;;5091296;28;20385;-76
2023/01/03 09:27:30;;;;;;;17.75;11.63;;;5.70;99.90;;;;;;5077808;28;20060;-75
2023/01/03 09:29:56;;;;;;;16.40;11.07;;;5.90;99.90;;;;;;5092249;28;20028;-76
2023/01/03 09:32:23;;;;;;;17.48;10.80;;;6.00;99.90;;;;;;5091189;28;20028;-76
2023/01/03 09:34:49;;;;;;;15.55;10.20;;;6.20;99.90;;;;;;5088582;28;20036;-77
2023/01/03 09:37:15;;;;;;;14.27;9.73;;;6.20;99.90;;;;;;5092057;28;20032;-76
2023/01/03 09:39:41;;;;;;;12.90;9.00;;;6.30;99.90;;;;;;5090025;28;20044;-76
2023/01/03 09:45:05;;;;;;;9.82;6.90;;;6.50;99.90;;;;;;5089020;28;20047;-76
2023/01/03 09:47:34;;;;;;;;;;;6.60;99.90;;;;;;5091431;28;20036;-77
2023/01/03 09:50:00;;;;;;;9.98;7.20;;;6.70;99.90;;;;;;5091528;28;19912;-81
2023/01/03 10:04:43;;;;;;;12.15;6.05;;;7.20;46.90;;;;;;5102919;28;20036;-82
2023/01/03 10:07:25;;;;;;;10.35;6.03;;;7.20;36.30;;;;;;5097976;28;20043;-82
2023/01/03 10:10:07;;;;;;;11.43;6.75;;;7.40;31.00;;;;;;5076510;28;20049;-81
2023/01/03 10:12:55;;;;;;;9.45;5.68;;;7.40;22.00;;;;;;5098235;28;20051;-81
2023/01/03 10:15:45;;;;;;;8.55;5.10;;;7.50;18.30;;;;;;5095879;28;20047;-82
2023/01/03 10:18:24;;;;;;;7.85;4.68;;;7.50;14.80;;;;;;5095608;28;20051;-82
2023/01/03 10:20:51;;;;;;;7.88;5.13;;;7.60;14.30;;;;;;5095642;28;20043;-82
2023/01/03 10:23:18;;;;;;;7.90;4.90;;;7.70;10.30;;;;;;5078169;28;20048;-83
2023/01/03 10:25:45;;;;;;;7.35;5.22;;;7.80;4.90;;;;;;5094962;28;20032;-82
2023/01/03 10:28:28;;;;;;;6.93;4.40;;;7.90;2.50;;;;;;5096651;28;20396;-82
2023/01/03 10:31:19;;;;;;;6.38;4.75;;;8.00;1.00;;;;;;5094771;28;20062;-82
2023/01/03 10:33:47;;;;;;;7.28;4.72;;;8.00;1.00;;;;;;5084262;28;20389;-82
2023/01/03 10:36:15;;;;;;;7.03;4.63;;;8.00;1.00;;;;;;5094177;28;20038;-82
2023/01/03 10:38:43;;;;;;;8.80;4.50;;;8.00;1.00;;;;;;5095644;28;20023;-81
2023/01/03 10:41:18;;;;;;;7.22;4.68;;;8.10;1.00;;;;;;5095837;28;20036;-81
2023/01/03 10:44:02;;;;;;;6.70;4.40;;;8.20;1.00;;;;;;5082778;28;20504;-80
2023/01/03 10:46:29;;;;;;;5.35;3.78;;;8.40;1.00;;;;;;5073076;28;20036;-81
2023/01/03 10:49:11;;;;;;;7.47;4.18;;;8.60;1.00;;;;;;5076637;28;20036;-83
2023/01/03 10:51:54;;;;;;;7.43;4.80;;;8.70;1.00;;;;;;5092795;28;20044;-78
2023/01/03 10:54:39;;;;;;;7.07;4.40;;;8.80;1.00;;;;;;5086735;28;20044;-77
2023/01/03 10:57:06;;;;;;;7.18;4.15;;;9.00;1.00;;;;;;5071937;28;20043;-76
2023/01/03 10:59:32;;;;;;;5.72;4.03;;;9.10;1.00;;;;;;5093512;28;20036;-76
2023/01/03 11:02:06;;;;;;;8.27;4.85;;;9.20;1.00;;;;;;5094312;28;20032;-76
2023/01/03 11:04:34;;;;;;;6.80;4.80;;;9.20;1.00;;;;;;5092016;28;20040;-76
2023/01/03 11:07:00;;;;;;;9.18;4.15;;;9.20;1.00;;;;;;5093728;28;20043;-76
2023/01/03 11:09:48;;;;;;;9.43;4.35;;;9.20;1.00;;;;;;5094052;28;20460;-76
2023/01/03 11:12:29;;;;;;;7.38;4.00;;;9.30;1.00;;;;;;5095405;28;20047;-83
2023/01/03 11:14:57;;;;;;;6.93;4.35;;;9.30;1.00;;;;;;5095848;28;20036;-82
2023/01/03 11:17:25;;;;;;;7.30;3.58;;;9.30;1.00;;;;;;5096255;28;20044;-82
2023/01/03 11:19:52;;;;;;;7.43;2.92;;;9.40;1.00;;;;;;5094265;28;20040;-81
2023/01/03 11:22:38;;;;;;;3.83;2.63;;;9.50;1.00;;;;;;5076747;28;20055;-83
2023/01/03 11:25:28;;;;;;;7.50;3.53;;;9.50;1.00;;;;;;5073820;28;20036;-83
2023/01/03 11:28:01;;;;;;;6.15;3.67;;;9.50;1.00;;;;;;5093749;28;20051;-83
2023/01/03 11:30:50;;;;;;;4.55;3.50;;;9.60;1.00;;;;;;5094430;28;20040;-83
2023/01/03 11:33:29;;;;;;;7.82;4.18;;;9.70;1.00;;;;;;5093612;28;20465;-81
2023/01/03 11:36:01;;;;;;;7.63;4.55;;;9.70;1.00;;;;;;5072955;28;20047;-83
2023/01/03 11:38:30;;;;;;;4.97;3.40;;;9.60;1.00;;;;;;5082006;28;20036;-84
2023/01/03 11:41:08;;;;;;;7.55;3.72;;;9.60;1.00;;;;;;5079937;28;20067;-83
2023/01/03 11:43:49;;;;;;;4.78;2.70;;;9.60;1.00;;;;;;5088178;28;20417;-86
2023/01/03 11:46:24;;;;;;;5.85;3.58;;;9.80;1.00;;;;;;5096192;28;20040;-87
2023/01/03 11:49:21;;;;;;;9.20;5.72;;;9.80;1.00;;;;;;5085444;28;20029;-84
2023/01/03 11:52:01;;;;;;;34.38;19.23;;;10.00;1.00;;;;;;5075750;28;20481;-83
2023/01/03 11:54:43;;;;;;;10.93;5.85;;;10.10;1.00;;;;;;5074111;28;20040;-83
2023/01/03 11:57:39;;;;;;;12.65;6.88;;;10.00;1.00;;;;;;5083199;28;20548;-84
2023/01/03 12:00:30;;;;;;;44.58;24.60;;;9.80;1.00;;;;;;5058644;28;20069;-84
2023/01/03 12:03:29;;;;;;;61.28;30.83;;;9.80;1.00;;;;;;5090349;28;20477;-85
2023/01/03 12:06:10;;;;;;;45.00;24.25;;;9.90;1.00;;;;;;5069787;28;20043;-81
2023/01/03 12:09:05;;;;;;;22.98;11.50;;;10.10;1.00;;;;;;5083681;28;20238;-82
2023/01/03 12:11:46;;;;;;;113.05;58.20;;;10.20;1.00;;;;;;5048446;28;20398;-85
2023/01/03 12:14:20;;;;;;;55.10;29.40;;;10.30;1.00;;;;;;5083380;28;20045;-85
2023/01/03 12:16:56;;;;;;;158.43;80.35;;;10.40;1.00;;;;;;5066824;28;20382;-84
2023/01/03 12:19:28;;;;;;;128.00;63.63;;;10.50;1.00;;;;;;5083612;28;20032;-84
2023/01/03 12:22:15;;;;;;;73.00;34.15;;;10.50;1.00;;;;;;5072539;28;20044;-83
2023/01/03 12:24:51;;;;;;;143.27;64.35;;;10.50;1.00;;;;;;5091787;28;20047;-85
2023/01/03 12:27:28;;;;;;;29.35;13.77;;;10.60;1.00;;;;;;5091602;28;20039;-83
2023/01/03 12:30:12;;;;;;;28.63;15.05;;;10.60;1.00;;;;;;5090238;28;20058;-84
2023/01/03 12:32:43;;;;;;;91.30;50.75;;;10.60;1.00;;;;;;5091575;28;20048;-85
2023/01/03 12:35:24;;;;;;;12.13;7.80;;;10.70;1.00;;;;;;5090670;28;20481;-83
2023/01/03 12:37:51;;;;;;;11.02;5.63;;;10.50;1.00;;;;;;5091240;28;20031;-84
2023/01/03 12:40:34;;;;;;;16.05;6.95;;;10.60;1.00;;;;;;5091309;28;20044;-85
2023/01/03 12:43:12;;;;;;;33.30;19.05;;;10.70;1.00;;;;;;5085697;28;20044;-84
2023/01/03 12:45:57;;;;;;;31.85;19.17;;;10.70;1.00;;;;;;5073762;28;20048;-85
2023/01/03 12:48:38;;;;;;;9.63;4.88;;;10.60;1.00;;;;;;5091193;28;20040;-83
2023/01/03 12:51:06;;;;;;;4.78;2.90;;;10.70;1.00;;;;;;5089327;28;20044;-84
2023/01/03 12:53:47;;;;;;;14.20;9.00;;;10.70;1.00;;;;;;5073844;28;20047;-81
2023/01/03 12:56:25;;;;;;;;;;;10.60;1.00;;;;;;5069529;28;20043;-84
2023/01/03 12:59:30;;;;;;;10.05;3.65;;;10.60;1.00;;;;;;5092005;28;20245;-83
2023/01/03 13:01:59;;;;;;;35.03;19.85;;;10.60;1.00;;;;;;5063365;28;20055;-85
2023/01/03 13:04:36;;;;;;;18.10;12.50;;;10.80;1.00;;;;;;5091067;28;20028;-82
2023/01/03 13:07:11;;;;;;;16.33;11.10;;;10.80;1.00;;;;;;5073180;28;20074;-83
2023/01/03 13:09:42;;;;;;;8.68;3.50;;;11.00;1.00;;;;;;5089963;28;20421;-85
2023/01/03 13:12:17;;;;;;;;;;;10.90;1.00;;;;;;5090883;28;20039;-81
2023/01/03 13:14:53;;;;;;;10.43;6.80;;;10.70;1.00;;;;;;5088826;28;19908;-84
2023/01/03 13:17:25;;;;;;;8.13;5.57;;;10.50;1.00;;;;;;5092086;28;20047;-84
2023/01/03 13:19:56;;;;;;;8.93;3.70;;;10.50;1.00;;;;;;5080675;28;20043;-82
2023/01/03 13:22:41;;;;;;;4.72;2.55;;;10.50;1.00;;;;;;5083459;28;20047;-81
2023/01/03 13:25:26;;;;;;;5.95;4.95;;;10.50;1.00;;;;;;5081881;28;20043;-83
2023/01/03 13:27:55;;;;;;;4.20;2.80;;;10.40;1.00;;;;;;5090614;28;20052;-82
2023/01/03 13:30:29;;;;;;;4.57;2.15;;;10.40;1.00;;;;;;5089716;28;20386;-76
2023/01/03 13:33:16;;;;;;;6.65;2.90;;;10.40;1.00;;;;;;5070554;28;20041;-79
2023/01/03 13:35:45;;;;;;;6.57;3.67;;;10.40;1.00;;;;;;5081267;28;20044;-80
2023/01/03 13:38:26;;;;;;;3.53;1.95;;;10.40;1.00;;;;;;5073171;28;20036;-81
2023/01/03 13:41:03;;;;;;;12.32;2.60;;;10.40;1.00;;;;;;5086543;28;20040;-82
2023/01/03 13:43:32;;;;;;;3.67;1.60;;;10.30;1.00;;;;;;5081704;28;20056;-82
2023/01/03 13:46:03;;;;;;;3.03;2.00;;;10.30;1.00;;;;;;5072708;28;20035;-82
2023/01/03 13:48:36;;;;;;;5.15;1.80;;;10.20;1.00;;;;;;5068343;28;20411;-81
2023/01/03 13:51:06;;;;;;;6.10;3.50;;;10.20;1.00;;;;;;5065380;28;20044;-81
2023/01/03 13:53:49;;;;;;;5.97;2.25;;;10.20;1.00;;;;;;5083484;28;20032;-84
2023/01/03 13:56:15;;;;;;;4.22;1.85;;;10.20;1.00;;;;;;5046818;28;20045;-80
2023/01/03 13:58:44;;;;;;;5.60;2.78;;;10.20;1.00;;;;;;5077982;28;20024;-82
2023/01/03 14:01:38;;;;;;;3.03;2.15;;;10.10;1.00;;;;;;5078954;28;20783;-83
2023/01/03 14:04:24;;;;;;;6.07;3.83;;;10.20;1.00;;;;;;5089210;28;20067;-80
2023/01/03 14:07:09;;;;;;;5.25;2.78;;;10.20;1.00;;;;;;5073589;28;20051;-80
2023/01/03 14:09:38;;;;;;;3.38;1.92;;;10.30;1.00;;;;;;5091362;28;20055;-79
2023/01/03 14:12:19;;;;;;;3.30;1.35;;;10.40;1.00;;;;;;5088401;28;20393;-79
2023/01/03 14:14:51;;;;;;;;;;;10.40;1.00;;;;;;5092425;28;20040;-80
2023/01/03 14:17:21;;;;;;;2.85;2.00;;;10.50;1.00;;;;;;5091494;28;19920;-79
2023/01/03 14:19:53;;;;;;;3.95;1.70;;;10.50;1.00;;;;;;5090554;28;20044;-80